sensor_id;sensor_type;location;lat;lon;timestamp;P1;durP1;ratioP1;P2;durP2;ratioP2
23129;SDS011;11734;51.046;13.778;2023-05-16T00:01:50;7.53;;;6.27;;
23129;SDS011;11734;51.046;13.778;2023-05-16T00:04:19;7.23;;;6.57;;
23129;SDS011;11734;51.046;13.778;2023-05-16T00:06:49;7.63;;;6.77;;
23129;SDS011;11734;51.046;13.778;2023-05-16T00:09:16;7.97;;;7.17;;
23129;SDS011;11734;51.046;13.778;2023-05-16T00:11:44;8.03;;;7.23;;
23129;SDS011;11734;51.046;13.778;2023-05-16T00:14:13;9.77;;;7.43;;
23129;SDS011;11734;51.046;13.778;2023-05-16T00:16:41;7.47;;;6.77;;
23129;SDS011;11734;51.046;13.778;2023-05-16T00:19:09;7.77;;;6.77;;
23129;SDS011;11734;51.046;13.778;2023-05-16T00:21:36;7.43;;;6.83;;
23129;SDS011;11734;51.046;13.778;2023-05-16T00:24:03;7.50;;;6.63;;
23129;SDS011;11734;51.046;13.778;2023-05-16T00:26:32;8.17;;;7.37;;
23129;SDS011;11734;51.046;13.778;2023-05-16T00:29:00;8.90;;;7.93;;
23129;SDS011;11734;51.046;13.778;2023-05-16T00:31:29;8.23;;;7.43;;
23129;SDS011;11734;51.046;13.778;2023-05-16T00:34:01;8.37;;;7.20;;
23129;SDS011;11734;51.046;13.778;2023-05-16T00:36:29;8.73;;;7.83;;
23129;SDS011;11734;51.046;13.778;2023-05-16T00:38:57;8.60;;;7.70;;
23129;SDS011;11734;51.046;13.778;2023-05-16T00:41:27;7.60;;;6.73;;
23129;SDS011;11734;51.046;13.778;2023-05-16T00:43:58;8.33;;;7.50;;
23129;SDS011;11734;51.046;13.778;2023-05-16T00:46:25;7.60;;;6.90;;
23129;SDS011;11734;51.046;13.778;2023-05-16T00:48:55;8.10;;;7.30;;
23129;SDS011;11734;51.046;13.778;2023-05-16T00:51:22;7.90;;;7.20;;
23129;SDS011;11734;51.046;13.778;2023-05-16T00:53:52;9.33;;;7.93;;
23129;SDS011;11734;51.046;13.778;2023-05-16T00:56:23;7.83;;;7.03;;
23129;SDS011;11734;51.046;13.778;2023-05-16T00:58:52;7.43;;;6.73;;
23129;SDS011;11734;51.046;13.778;2023-05-16T01:01:19;8.60;;;7.80;;
23129;SDS011;11734;51.046;13.778;2023-05-16T01:03:51;7.73;;;7.03;;
23129;SDS011;11734;51.046;13.778;2023-05-16T01:06:23;8.53;;;7.73;;
23129;SDS011;11734;51.046;13.778;2023-05-16T01:08:50;8.73;;;7.83;;
23129;SDS011;11734;51.046;13.778;2023-05-16T01:11:21;9.47;;;7.63;;
23129;SDS011;11734;51.046;13.778;2023-05-16T01:22:26;8.40;;;7.43;;
23129;SDS011;11734;51.046;13.778;2023-05-16T01:27:42;8.47;;;7.67;;
23129;SDS011;11734;51.046;13.778;2023-05-16T01:30:14;8.80;;;7.50;;
23129;SDS011;11734;51.046;13.778;2023-05-16T01:32:42;8.47;;;7.37;;
23129;SDS011;11734;51.046;13.778;2023-05-16T01:35:10;9.47;;;8.10;;
23129;SDS011;11734;51.046;13.778;2023-05-16T01:38:24;9.13;;;8.23;;
23129;SDS011;11734;51.046;13.778;2023-05-16T01:40:38;8.30;;;7.40;;
23129;SDS011;11734;51.046;13.778;2023-05-16T01:43:12;8.67;;;7.80;;
23129;SDS011;11734;51.046;13.778;2023-05-16T01:45:44;8.23;;;7.50;;
23129;SDS011;11734;51.046;13.778;2023-05-16T01:48:15;9.10;;;8.20;;
23129;SDS011;11734;51.046;13.778;2023-05-16T01:50:45;8.73;;;7.50;;
23129;SDS011;11734;51.046;13.778;2023-05-16T01:53:14;9.87;;;7.93;;
23129;SDS011;11734;51.046;13.778;2023-05-16T01:55:55;9.63;;;8.60;;
23129;SDS011;11734;51.046;13.778;2023-05-16T01:58:24;9.43;;;8.03;;
23129;SDS011;11734;51.046;13.778;2023-05-16T02:00:52;9.40;;;8.13;;
23129;SDS011;11734;51.046;13.778;2023-05-16T02:03:20;8.97;;;8.07;;
23129;SDS011;11734;51.046;13.778;2023-05-16T02:05:47;8.93;;;8.03;;
23129;SDS011;11734;51.046;13.778;2023-05-16T02:08:14;9.30;;;7.77;;
23129;SDS011;11734;51.046;13.778;2023-05-16T02:10:42;9.53;;;8.47;;
23129;SDS011;11734;51.046;13.778;2023-05-16T02:13:09;9.47;;;8.20;;
23129;SDS011;11734;51.046;13.778;2023-05-16T02:15:36;8.97;;;7.67;;
23129;SDS011;11734;51.046;13.778;2023-05-16T02:18:04;9.20;;;7.73;;
23129;SDS011;11734;51.046;13.778;2023-05-16T02:20:31;9.10;;;7.90;;
23129;SDS011;11734;51.046;13.778;2023-05-16T02:22:59;9.53;;;8.07;;
23129;SDS011;11734;51.046;13.778;2023-05-16T02:25:30;8.83;;;8.03;;
23129;SDS011;11734;51.046;13.778;2023-05-16T02:27:57;8.80;;;8.00;;
23129;SDS011;11734;51.046;13.778;2023-05-16T02:30:25;9.20;;;8.30;;
23129;SDS011;11734;51.046;13.778;2023-05-16T02:32:52;9.53;;;8.53;;
23129;SDS011;11734;51.046;13.778;2023-05-16T02:35:20;9.37;;;8.47;;
23129;SDS011;11734;51.046;13.778;2023-05-16T02:37:47;10.27;;;9.17;;
23129;SDS011;11734;51.046;13.778;2023-05-16T02:40:15;10.30;;;9.10;;
23129;SDS011;11734;51.046;13.778;2023-05-16T02:42:42;9.07;;;8.23;;
23129;SDS011;11734;51.046;13.778;2023-05-16T02:45:10;9.23;;;8.13;;
23129;SDS011;11734;51.046;13.778;2023-05-16T02:47:37;9.27;;;8.33;;
23129;SDS011;11734;51.046;13.778;2023-05-16T02:50:05;9.47;;;7.83;;
23129;SDS011;11734;51.046;13.778;2023-05-16T02:52:33;10.00;;;8.77;;
23129;SDS011;11734;51.046;13.778;2023-05-16T02:55:00;9.07;;;8.17;;
23129;SDS011;11734;51.046;13.778;2023-05-16T02:57:31;9.37;;;8.30;;
23129;SDS011;11734;51.046;13.778;2023-05-16T02:59:58;10.67;;;9.17;;
23129;SDS011;11734;51.046;13.778;2023-05-16T03:02:25;10.07;;;8.83;;
23129;SDS011;11734;51.046;13.778;2023-05-16T03:04:53;11.53;;;9.13;;
23129;SDS011;11734;51.046;13.778;2023-05-16T03:07:20;9.57;;;8.60;;
23129;SDS011;11734;51.046;13.778;2023-05-16T03:09:47;10.77;;;8.57;;
23129;SDS011;11734;51.046;13.778;2023-05-16T03:12:14;9.60;;;8.60;;
23129;SDS011;11734;51.046;13.778;2023-05-16T03:14:42;10.70;;;9.60;;
23129;SDS011;11734;51.046;13.778;2023-05-16T03:17:10;9.73;;;8.60;;
23129;SDS011;11734;51.046;13.778;2023-05-16T03:19:37;10.37;;;9.37;;
23129;SDS011;11734;51.046;13.778;2023-05-16T03:22:06;11.10;;;9.07;;
23129;SDS011;11734;51.046;13.778;2023-05-16T03:24:33;10.43;;;9.23;;
23129;SDS011;11734;51.046;13.778;2023-05-16T03:27:01;10.37;;;9.23;;
23129;SDS011;11734;51.046;13.778;2023-05-16T03:29:29;12.73;;;9.03;;
23129;SDS011;11734;51.046;13.778;2023-05-16T03:31:57;11.70;;;9.47;;
23129;SDS011;11734;51.046;13.778;2023-05-16T03:34:24;9.53;;;8.50;;
23129;SDS011;11734;51.046;13.778;2023-05-16T03:36:52;10.80;;;9.70;;
23129;SDS011;11734;51.046;13.778;2023-05-16T03:39:20;9.37;;;8.47;;
23129;SDS011;11734;51.046;13.778;2023-05-16T03:41:47;9.73;;;8.73;;
23129;SDS011;11734;51.046;13.778;2023-05-16T03:44:14;9.77;;;8.77;;
23129;SDS011;11734;51.046;13.778;2023-05-16T03:46:41;10.20;;;9.13;;
23129;SDS011;11734;51.046;13.778;2023-05-16T03:49:09;10.30;;;9.27;;
23129;SDS011;11734;51.046;13.778;2023-05-16T03:51:36;10.47;;;8.80;;
23129;SDS011;11734;51.046;13.778;2023-05-16T03:54:04;11.30;;;9.93;;
23129;SDS011;11734;51.046;13.778;2023-05-16T03:56:31;12.30;;;9.47;;
23129;SDS011;11734;51.046;13.778;2023-05-16T03:58:58;11.07;;;9.27;;
23129;SDS011;11734;51.046;13.778;2023-05-16T04:01:26;10.50;;;9.07;;
23129;SDS011;11734;51.046;13.778;2023-05-16T04:03:53;10.60;;;9.50;;
23129;SDS011;11734;51.046;13.778;2023-05-16T04:06:20;10.90;;;9.57;;
23129;SDS011;11734;51.046;13.778;2023-05-16T04:08:48;9.93;;;8.90;;
23129;SDS011;11734;51.046;13.778;2023-05-16T04:11:15;10.50;;;9.37;;
23129;SDS011;11734;51.046;13.778;2023-05-16T04:13:42;11.43;;;10.20;;
23129;SDS011;11734;51.046;13.778;2023-05-16T04:16:10;11.97;;;10.37;;
23129;SDS011;11734;51.046;13.778;2023-05-16T04:18:38;9.00;;;7.73;;
23129;SDS011;11734;51.046;13.778;2023-05-16T04:21:05;10.93;;;9.70;;
23129;SDS011;11734;51.046;13.778;2023-05-16T04:23:33;9.77;;;8.80;;
23129;SDS011;11734;51.046;13.778;2023-05-16T04:26:00;10.90;;;9.17;;
23129;SDS011;11734;51.046;13.778;2023-05-16T04:28:30;11.07;;;9.57;;
23129;SDS011;11734;51.046;13.778;2023-05-16T04:30:57;10.80;;;9.70;;
23129;SDS011;11734;51.046;13.778;2023-05-16T04:33:25;10.47;;;9.07;;
23129;SDS011;11734;51.046;13.778;2023-05-16T04:35:52;11.00;;;9.43;;
23129;SDS011;11734;51.046;13.778;2023-05-16T04:38:20;10.70;;;8.77;;
23129;SDS011;11734;51.046;13.778;2023-05-16T04:40:47;12.33;;;9.73;;
23129;SDS011;11734;51.046;13.778;2023-05-16T04:43:18;10.50;;;9.50;;
23129;SDS011;11734;51.046;13.778;2023-05-16T04:45:46;10.50;;;9.27;;
23129;SDS011;11734;51.046;13.778;2023-05-16T04:48:14;10.47;;;9.37;;
23129;SDS011;11734;51.046;13.778;2023-05-16T04:50:41;11.43;;;9.60;;
23129;SDS011;11734;51.046;13.778;2023-05-16T04:53:08;9.77;;;8.70;;
23129;SDS011;11734;51.046;13.778;2023-05-16T04:55:36;11.50;;;9.73;;
23129;SDS011;11734;51.046;13.778;2023-05-16T04:58:03;11.83;;;9.60;;
23129;SDS011;11734;51.046;13.778;2023-05-16T05:00:31;11.37;;;8.63;;
23129;SDS011;11734;51.046;13.778;2023-05-16T05:02:58;10.60;;;9.50;;
23129;SDS011;11734;51.046;13.778;2023-05-16T05:05:25;12.10;;;9.07;;
23129;SDS011;11734;51.046;13.778;2023-05-16T05:07:53;11.80;;;10.00;;
23129;SDS011;11734;51.046;13.778;2023-05-16T05:10:20;10.67;;;9.13;;
23129;SDS011;11734;51.046;13.778;2023-05-16T05:12:48;10.40;;;9.23;;
23129;SDS011;11734;51.046;13.778;2023-05-16T05:15:16;10.20;;;8.40;;
23129;SDS011;11734;51.046;13.778;2023-05-16T05:17:44;11.07;;;9.97;;
23129;SDS011;11734;51.046;13.778;2023-05-16T05:20:12;11.37;;;10.03;;
23129;SDS011;11734;51.046;13.778;2023-05-16T05:22:39;12.33;;;10.07;;
23129;SDS011;11734;51.046;13.778;2023-05-16T05:25:06;13.43;;;10.33;;
23129;SDS011;11734;51.046;13.778;2023-05-16T05:27:34;23.63;;;17.33;;
23129;SDS011;11734;51.046;13.778;2023-05-16T05:30:02;14.63;;;11.73;;
23129;SDS011;11734;51.046;13.778;2023-05-16T05:32:29;14.83;;;12.23;;
23129;SDS011;11734;51.046;13.778;2023-05-16T05:34:57;12.83;;;11.30;;
23129;SDS011;11734;51.046;13.778;2023-05-16T05:37:25;12.30;;;10.93;;
23129;SDS011;11734;51.046;13.778;2023-05-16T05:39:52;11.70;;;10.27;;
23129;SDS011;11734;51.046;13.778;2023-05-16T05:42:19;12.50;;;10.93;;
23129;SDS011;11734;51.046;13.778;2023-05-16T05:44:47;13.67;;;11.40;;
23129;SDS011;11734;51.046;13.778;2023-05-16T05:47:14;13.83;;;10.90;;
23129;SDS011;11734;51.046;13.778;2023-05-16T05:49:42;14.77;;;12.53;;
23129;SDS011;11734;51.046;13.778;2023-05-16T05:52:09;15.53;;;12.27;;
23129;SDS011;11734;51.046;13.778;2023-05-16T05:54:36;15.97;;;12.37;;
23129;SDS011;11734;51.046;13.778;2023-05-16T05:57:04;14.10;;;12.27;;
23129;SDS011;11734;51.046;13.778;2023-05-16T05:59:31;16.23;;;12.67;;
23129;SDS011;11734;51.046;13.778;2023-05-16T06:01:59;14.27;;;12.03;;
23129;SDS011;11734;51.046;13.778;2023-05-16T06:04:26;15.73;;;11.80;;
23129;SDS011;11734;51.046;13.778;2023-05-16T06:06:54;15.63;;;12.63;;
23129;SDS011;11734;51.046;13.778;2023-05-16T06:09:21;13.53;;;11.37;;
23129;SDS011;11734;51.046;13.778;2023-05-16T06:11:48;16.63;;;12.00;;
23129;SDS011;11734;51.046;13.778;2023-05-16T06:14:16;14.53;;;12.07;;
23129;SDS011;11734;51.046;13.778;2023-05-16T06:16:43;17.17;;;13.30;;
23129;SDS011;11734;51.046;13.778;2023-05-16T06:19:11;18.83;;;12.80;;
23129;SDS011;11734;51.046;13.778;2023-05-16T06:21:41;15.50;;;12.63;;
23129;SDS011;11734;51.046;13.778;2023-05-16T06:24:09;16.67;;;13.43;;
23129;SDS011;11734;51.046;13.778;2023-05-16T06:26:37;17.43;;;13.50;;
23129;SDS011;11734;51.046;13.778;2023-05-16T06:29:05;17.17;;;13.57;;
23129;SDS011;11734;51.046;13.778;2023-05-16T06:31:32;18.07;;;14.00;;
23129;SDS011;11734;51.046;13.778;2023-05-16T06:33:59;19.30;;;14.40;;
23129;SDS011;11734;51.046;13.778;2023-05-16T06:36:27;22.17;;;15.37;;
23129;SDS011;11734;51.046;13.778;2023-05-16T06:38:54;21.43;;;15.90;;
23129;SDS011;11734;51.046;13.778;2023-05-16T06:41:21;23.43;;;16.67;;
23129;SDS011;11734;51.046;13.778;2023-05-16T06:43:49;23.10;;;17.33;;
23129;SDS011;11734;51.046;13.778;2023-05-16T06:46:17;24.10;;;17.03;;
23129;SDS011;11734;51.046;13.778;2023-05-16T06:48:44;26.03;;;18.73;;
23129;SDS011;11734;51.046;13.778;2023-05-16T06:51:11;24.50;;;16.90;;
23129;SDS011;11734;51.046;13.778;2023-05-16T06:53:39;23.00;;;16.10;;
23129;SDS011;11734;51.046;13.778;2023-05-16T06:56:06;26.23;;;17.50;;
23129;SDS011;11734;51.046;13.778;2023-05-16T06:58:34;24.80;;;17.93;;
23129;SDS011;11734;51.046;13.778;2023-05-16T07:01:02;23.37;;;16.60;;
23129;SDS011;11734;51.046;13.778;2023-05-16T07:03:29;23.87;;;17.60;;
23129;SDS011;11734;51.046;13.778;2023-05-16T07:05:57;27.07;;;18.43;;
23129;SDS011;11734;51.046;13.778;2023-05-16T07:08:24;23.60;;;17.57;;
23129;SDS011;11734;51.046;13.778;2023-05-16T07:10:52;25.63;;;17.67;;
23129;SDS011;11734;51.046;13.778;2023-05-16T07:13:19;22.20;;;16.17;;
23129;SDS011;11734;51.046;13.778;2023-05-16T07:15:46;19.83;;;13.83;;
23129;SDS011;11734;51.046;13.778;2023-05-16T07:18:14;17.73;;;13.87;;
23129;SDS011;11734;51.046;13.778;2023-05-16T07:20:41;20.87;;;15.00;;
23129;SDS011;11734;51.046;13.778;2023-05-16T07:23:08;18.10;;;13.43;;
23129;SDS011;11734;51.046;13.778;2023-05-16T07:25:36;14.03;;;10.97;;
23129;SDS011;11734;51.046;13.778;2023-05-16T07:28:03;15.00;;;11.47;;
23129;SDS011;11734;51.046;13.778;2023-05-16T07:30:31;14.27;;;11.00;;
23129;SDS011;11734;51.046;13.778;2023-05-16T07:32:58;13.43;;;10.53;;
23129;SDS011;11734;51.046;13.778;2023-05-16T07:35:26;16.53;;;11.67;;
23129;SDS011;11734;51.046;13.778;2023-05-16T07:37:53;17.73;;;12.07;;
23129;SDS011;11734;51.046;13.778;2023-05-16T07:40:21;17.23;;;12.43;;
23129;SDS011;11734;51.046;13.778;2023-05-16T07:42:53;14.47;;;11.13;;
23129;SDS011;11734;51.046;13.778;2023-05-16T07:45:21;15.90;;;12.07;;
23129;SDS011;11734;51.046;13.778;2023-05-16T07:47:48;14.27;;;10.70;;
23129;SDS011;11734;51.046;13.778;2023-05-16T07:50:15;16.73;;;12.07;;
23129;SDS011;11734;51.046;13.778;2023-05-16T07:52:43;13.77;;;10.93;;
23129;SDS011;11734;51.046;13.778;2023-05-16T07:55:10;14.63;;;11.20;;
23129;SDS011;11734;51.046;13.778;2023-05-16T07:57:38;14.67;;;10.77;;
23129;SDS011;11734;51.046;13.778;2023-05-16T08:00:06;13.63;;;10.73;;
23129;SDS011;11734;51.046;13.778;2023-05-16T08:02:37;14.10;;;10.47;;
23129;SDS011;11734;51.046;13.778;2023-05-16T08:05:05;12.87;;;9.73;;
23129;SDS011;11734;51.046;13.778;2023-05-16T08:07:33;12.90;;;10.20;;
23129;SDS011;11734;51.046;13.778;2023-05-16T08:10:01;12.97;;;9.37;;
23129;SDS011;11734;51.046;13.778;2023-05-16T08:12:29;12.60;;;10.07;;
23129;SDS011;11734;51.046;13.778;2023-05-16T08:14:56;12.53;;;9.37;;
23129;SDS011;11734;51.046;13.778;2023-05-16T08:17:23;11.73;;;9.80;;
23129;SDS011;11734;51.046;13.778;2023-05-16T08:19:51;12.30;;;9.43;;
23129;SDS011;11734;51.046;13.778;2023-05-16T08:22:18;13.77;;;10.23;;
23129;SDS011;11734;51.046;13.778;2023-05-16T08:24:46;10.60;;;9.47;;
23129;SDS011;11734;51.046;13.778;2023-05-16T08:27:13;11.50;;;9.10;;
23129;SDS011;11734;51.046;13.778;2023-05-16T08:29:41;9.90;;;8.70;;
23129;SDS011;11734;51.046;13.778;2023-05-16T08:32:08;11.00;;;9.37;;
23129;SDS011;11734;51.046;13.778;2023-05-16T08:34:36;12.70;;;9.43;;
23129;SDS011;11734;51.046;13.778;2023-05-16T08:37:03;12.83;;;8.63;;
23129;SDS011;11734;51.046;13.778;2023-05-16T08:39:31;11.37;;;9.30;;
23129;SDS011;11734;51.046;13.778;2023-05-16T08:41:59;10.63;;;8.53;;
23129;SDS011;11734;51.046;13.778;2023-05-16T08:44:27;10.77;;;8.20;;
23129;SDS011;11734;51.046;13.778;2023-05-16T08:46:54;11.20;;;8.23;;
23129;SDS011;11734;51.046;13.778;2023-05-16T08:49:22;10.43;;;8.57;;
23129;SDS011;11734;51.046;13.778;2023-05-16T08:51:55;13.07;;;9.20;;
23129;SDS011;11734;51.046;13.778;2023-05-16T08:54:26;10.30;;;8.63;;
23129;SDS011;11734;51.046;13.778;2023-05-16T08:56:53;9.20;;;8.03;;
23129;SDS011;11734;51.046;13.778;2023-05-16T08:59:22;9.40;;;8.30;;
23129;SDS011;11734;51.046;13.778;2023-05-16T09:01:49;11.13;;;8.33;;
23129;SDS011;11734;51.046;13.778;2023-05-16T09:04:17;11.17;;;8.60;;
23129;SDS011;11734;51.046;13.778;2023-05-16T09:06:44;9.67;;;8.60;;
23129;SDS011;11734;51.046;13.778;2023-05-16T09:09:11;11.37;;;8.53;;
23129;SDS011;11734;51.046;13.778;2023-05-16T09:11:39;11.43;;;8.20;;
23129;SDS011;11734;51.046;13.778;2023-05-16T09:14:08;9.63;;;8.00;;
23129;SDS011;11734;51.046;13.778;2023-05-16T09:16:35;11.80;;;7.97;;
23129;SDS011;11734;51.046;13.778;2023-05-16T09:19:03;11.17;;;7.73;;
23129;SDS011;11734;51.046;13.778;2023-05-16T09:21:34;8.97;;;8.00;;
23129;SDS011;11734;51.046;13.778;2023-05-16T09:24:08;9.60;;;8.30;;
23129;SDS011;11734;51.046;13.778;2023-05-16T09:26:36;9.97;;;8.27;;
23129;SDS011;11734;51.046;13.778;2023-05-16T09:29:11;8.83;;;7.40;;
23129;SDS011;11734;51.046;13.778;2023-05-16T09:31:38;8.70;;;7.80;;
23129;SDS011;11734;51.046;13.778;2023-05-16T09:34:06;9.00;;;7.87;;
23129;SDS011;11734;51.046;13.778;2023-05-16T09:36:34;9.43;;;8.37;;
23129;SDS011;11734;51.046;13.778;2023-05-16T09:39:04;10.17;;;7.90;;
23129;SDS011;11734;51.046;13.778;2023-05-16T09:41:38;9.07;;;7.63;;
23129;SDS011;11734;51.046;13.778;2023-05-16T09:44:06;8.60;;;7.67;;
23129;SDS011;11734;51.046;13.778;2023-05-16T09:46:33;12.27;;;7.23;;
23129;SDS011;11734;51.046;13.778;2023-05-16T09:49:02;9.47;;;7.37;;
23129;SDS011;11734;51.046;13.778;2023-05-16T09:51:30;10.40;;;7.93;;
23129;SDS011;11734;51.046;13.778;2023-05-16T09:53:58;8.23;;;6.97;;
23129;SDS011;11734;51.046;13.778;2023-05-16T09:56:26;9.60;;;7.77;;
23129;SDS011;11734;51.046;13.778;2023-05-16T09:58:55;9.30;;;7.50;;
23129;SDS011;11734;51.046;13.778;2023-05-16T10:01:22;8.77;;;7.83;;
23129;SDS011;11734;51.046;13.778;2023-05-16T10:03:50;9.17;;;7.40;;
23129;SDS011;11734;51.046;13.778;2023-05-16T10:06:18;9.33;;;7.97;;
23129;SDS011;11734;51.046;13.778;2023-05-16T10:08:46;8.33;;;6.90;;
23129;SDS011;11734;51.046;13.778;2023-05-16T10:11:13;8.17;;;7.37;;
23129;SDS011;11734;51.046;13.778;2023-05-16T10:13:42;9.60;;;7.37;;
23129;SDS011;11734;51.046;13.778;2023-05-16T10:16:15;8.80;;;7.23;;
23129;SDS011;11734;51.046;13.778;2023-05-16T10:18:43;8.43;;;7.07;;
23129;SDS011;11734;51.046;13.778;2023-05-16T10:21:15;8.93;;;7.67;;
23129;SDS011;11734;51.046;13.778;2023-05-16T10:23:43;9.17;;;7.80;;
23129;SDS011;11734;51.046;13.778;2023-05-16T10:26:15;7.57;;;6.50;;
23129;SDS011;11734;51.046;13.778;2023-05-16T10:28:43;7.30;;;6.63;;
23129;SDS011;11734;51.046;13.778;2023-05-16T10:31:11;8.07;;;6.80;;
23129;SDS011;11734;51.046;13.778;2023-05-16T10:33:40;7.73;;;6.73;;
23129;SDS011;11734;51.046;13.778;2023-05-16T10:36:09;7.67;;;6.60;;
23129;SDS011;11734;51.046;13.778;2023-05-16T10:38:38;8.13;;;5.90;;
23129;SDS011;11734;51.046;13.778;2023-05-16T10:41:06;6.93;;;6.17;;
23129;SDS011;11734;51.046;13.778;2023-05-16T10:43:35;9.83;;;7.53;;
23129;SDS011;11734;51.046;13.778;2023-05-16T10:46:05;7.90;;;7.10;;
23129;SDS011;11734;51.046;13.778;2023-05-16T10:48:40;8.57;;;7.37;;
23129;SDS011;11734;51.046;13.778;2023-05-16T10:53:54;8.37;;;7.07;;
23129;SDS011;11734;51.046;13.778;2023-05-16T10:56:24;7.50;;;6.57;;
23129;SDS011;11734;51.046;13.778;2023-05-16T10:58:52;7.13;;;6.30;;
23129;SDS011;11734;51.046;13.778;2023-05-16T11:01:26;6.93;;;6.23;;
23129;SDS011;11734;51.046;13.778;2023-05-16T11:06:32;6.67;;;5.40;;
23129;SDS011;11734;51.046;13.778;2023-05-16T11:14:21;5.80;;;5.20;;
23129;SDS011;11734;51.046;13.778;2023-05-16T11:16:50;5.43;;;4.93;;
23129;SDS011;11734;51.046;13.778;2023-05-16T11:27:20;6.77;;;5.30;;
23129;SDS011;11734;51.046;13.778;2023-05-16T11:29:49;6.87;;;5.00;;
23129;SDS011;11734;51.046;13.778;2023-05-16T11:32:19;7.40;;;5.13;;
23129;SDS011;11734;51.046;13.778;2023-05-16T11:34:49;6.17;;;4.93;;
23129;SDS011;11734;51.046;13.778;2023-05-16T11:37:17;5.17;;;4.63;;
23129;SDS011;11734;51.046;13.778;2023-05-16T11:39:46;5.33;;;4.80;;
23129;SDS011;11734;51.046;13.778;2023-05-16T11:42:14;5.77;;;4.40;;
23129;SDS011;11734;51.046;13.778;2023-05-16T11:44:42;5.53;;;4.50;;
23129;SDS011;11734;51.046;13.778;2023-05-16T11:47:15;6.37;;;4.97;;
23129;SDS011;11734;51.046;13.778;2023-05-16T11:49:43;4.97;;;4.47;;
23129;SDS011;11734;51.046;13.778;2023-05-16T11:52:12;5.13;;;4.63;;
23129;SDS011;11734;51.046;13.778;2023-05-16T11:54:43;5.17;;;4.53;;
23129;SDS011;11734;51.046;13.778;2023-05-16T11:57:11;5.00;;;4.50;;
23129;SDS011;11734;51.046;13.778;2023-05-16T11:59:38;6.23;;;4.90;;
23129;SDS011;11734;51.046;13.778;2023-05-16T12:02:07;6.57;;;5.20;;
23129;SDS011;11734;51.046;13.778;2023-05-16T12:04:35;5.57;;;5.00;;
23129;SDS011;11734;51.046;13.778;2023-05-16T12:07:04;4.83;;;4.43;;
23129;SDS011;11734;51.046;13.778;2023-05-16T12:09:31;4.93;;;4.43;;
23129;SDS011;11734;51.046;13.778;2023-05-16T12:11:59;4.80;;;4.17;;
23129;SDS011;11734;51.046;13.778;2023-05-16T12:14:30;4.90;;;4.40;;
23129;SDS011;11734;51.046;13.778;2023-05-16T12:16:57;5.13;;;4.63;;
23129;SDS011;11734;51.046;13.778;2023-05-16T12:19:25;5.00;;;4.50;;
23129;SDS011;11734;51.046;13.778;2023-05-16T12:21:52;5.03;;;4.33;;
23129;SDS011;11734;51.046;13.778;2023-05-16T12:24:20;5.13;;;4.50;;
23129;SDS011;11734;51.046;13.778;2023-05-16T12:26:47;5.00;;;4.43;;
23129;SDS011;11734;51.046;13.778;2023-05-16T12:29:15;4.43;;;4.03;;
23129;SDS011;11734;51.046;13.778;2023-05-16T12:31:42;4.87;;;4.47;;
23129;SDS011;11734;51.046;13.778;2023-05-16T12:34:14;5.03;;;4.13;;
23129;SDS011;11734;51.046;13.778;2023-05-16T12:36:41;4.33;;;3.63;;
23129;SDS011;11734;51.046;13.778;2023-05-16T12:39:10;4.60;;;4.20;;
23129;SDS011;11734;51.046;13.778;2023-05-16T12:41:41;4.80;;;4.37;;
23129;SDS011;11734;51.046;13.778;2023-05-16T12:46:40;4.83;;;4.17;;
23129;SDS011;11734;51.046;13.778;2023-05-16T12:49:08;3.97;;;3.67;;
23129;SDS011;11734;51.046;13.778;2023-05-16T12:51:36;4.50;;;4.10;;
23129;SDS011;11734;51.046;13.778;2023-05-16T12:54:10;4.83;;;4.33;;
23129;SDS011;11734;51.046;13.778;2023-05-16T12:56:38;4.20;;;3.80;;
23129;SDS011;11734;51.046;13.778;2023-05-16T12:59:07;5.50;;;4.93;;
23129;SDS011;11734;51.046;13.778;2023-05-16T13:01:34;4.10;;;3.70;;
23129;SDS011;11734;51.046;13.778;2023-05-16T13:04:02;4.07;;;3.67;;
23129;SDS011;11734;51.046;13.778;2023-05-16T13:06:30;4.60;;;3.97;;
23129;SDS011;11734;51.046;13.778;2023-05-16T13:09:17;4.20;;;3.80;;
23129;SDS011;11734;51.046;13.778;2023-05-16T13:11:45;4.80;;;4.40;;
23129;SDS011;11734;51.046;13.778;2023-05-16T13:14:12;4.50;;;4.10;;
23129;SDS011;11734;51.046;13.778;2023-05-16T13:16:40;4.47;;;4.07;;
23129;SDS011;11734;51.046;13.778;2023-05-16T13:19:07;4.60;;;3.63;;
23129;SDS011;11734;51.046;13.778;2023-05-16T13:21:35;4.07;;;3.70;;
23129;SDS011;11734;51.046;13.778;2023-05-16T13:24:02;4.57;;;4.17;;
23129;SDS011;11734;51.046;13.778;2023-05-16T13:26:29;5.00;;;4.27;;
23129;SDS011;11734;51.046;13.778;2023-05-16T13:28:57;3.97;;;3.67;;
23129;SDS011;11734;51.046;13.778;2023-05-16T13:31:24;3.87;;;3.53;;
23129;SDS011;11734;51.046;13.778;2023-05-16T13:33:52;4.50;;;4.10;;
23129;SDS011;11734;51.046;13.778;2023-05-16T13:36:19;4.43;;;3.23;;
23129;SDS011;11734;51.046;13.778;2023-05-16T13:38:46;5.53;;;3.60;;
23129;SDS011;11734;51.046;13.778;2023-05-16T13:41:14;4.43;;;4.00;;
23129;SDS011;11734;51.046;13.778;2023-05-16T13:43:41;6.03;;;3.90;;
23129;SDS011;11734;51.046;13.778;2023-05-16T13:46:08;4.27;;;3.57;;
23129;SDS011;11734;51.046;13.778;2023-05-16T13:48:36;6.40;;;4.53;;
23129;SDS011;11734;51.046;13.778;2023-05-16T13:51:03;3.80;;;3.43;;
23129;SDS011;11734;51.046;13.778;2023-05-16T13:53:31;3.43;;;3.10;;
23129;SDS011;11734;51.046;13.778;2023-05-16T13:55:58;3.57;;;3.27;;
23129;SDS011;11734;51.046;13.778;2023-05-16T13:58:26;4.17;;;3.37;;
23129;SDS011;11734;51.046;13.778;2023-05-16T14:00:53;3.43;;;3.10;;
23129;SDS011;11734;51.046;13.778;2023-05-16T14:03:21;3.47;;;3.17;;
23129;SDS011;11734;51.046;13.778;2023-05-16T14:05:48;4.07;;;3.10;;
23129;SDS011;11734;51.046;13.778;2023-05-16T14:08:17;4.67;;;3.80;;
23129;SDS011;11734;51.046;13.778;2023-05-16T14:10:44;5.30;;;3.50;;
23129;SDS011;11734;51.046;13.778;2023-05-16T14:13:12;3.80;;;3.50;;
23129;SDS011;11734;51.046;13.778;2023-05-16T14:15:41;3.70;;;3.40;;
23129;SDS011;11734;51.046;13.778;2023-05-16T14:18:31;3.37;;;3.10;;
23129;SDS011;11734;51.046;13.778;2023-05-16T14:20:59;3.40;;;2.73;;
23129;SDS011;11734;51.046;13.778;2023-05-16T14:23:27;2.90;;;2.67;;
23129;SDS011;11734;51.046;13.778;2023-05-16T14:25:54;3.30;;;3.00;;
23129;SDS011;11734;51.046;13.778;2023-05-16T14:28:22;2.97;;;2.67;;
23129;SDS011;11734;51.046;13.778;2023-05-16T14:30:49;3.40;;;3.10;;
23129;SDS011;11734;51.046;13.778;2023-05-16T14:33:17;3.10;;;2.90;;
23129;SDS011;11734;51.046;13.778;2023-05-16T14:35:45;2.83;;;2.57;;
23129;SDS011;11734;51.046;13.778;2023-05-16T14:38:15;3.47;;;2.80;;
23129;SDS011;11734;51.046;13.778;2023-05-16T14:40:42;3.30;;;3.00;;
23129;SDS011;11734;51.046;13.778;2023-05-16T14:43:10;3.40;;;2.87;;
23129;SDS011;11734;51.046;13.778;2023-05-16T14:45:37;3.50;;;2.90;;
23129;SDS011;11734;51.046;13.778;2023-05-16T14:48:05;3.40;;;3.10;;
23129;SDS011;11734;51.046;13.778;2023-05-16T14:50:33;3.10;;;2.80;;
23129;SDS011;11734;51.046;13.778;2023-05-16T14:53:01;3.53;;;2.97;;
23129;SDS011;11734;51.046;13.778;2023-05-16T14:55:28;3.33;;;2.93;;
23129;SDS011;11734;51.046;13.778;2023-05-16T14:57:56;5.57;;;3.10;;
23129;SDS011;11734;51.046;13.778;2023-05-16T15:00:25;5.10;;;2.70;;
23129;SDS011;11734;51.046;13.778;2023-05-16T15:02:53;4.13;;;3.10;;
23129;SDS011;11734;51.046;13.778;2023-05-16T15:05:21;3.07;;;2.47;;